createdAt,value
2023-03-14T00:01:38.261Z,7.50
2023-03-14T00:04:06.433Z,7.35
2023-03-14T00:06:33.838Z,7.28
2023-03-14T00:09:01.215Z,7.53
2023-03-14T00:11:28.644Z,7.07
2023-03-14T00:13:56.010Z,7.20
2023-03-14T00:16:23.785Z,7.18
2023-03-14T00:18:51.178Z,7.32
2023-03-14T00:21:19.034Z,7.78
2023-03-14T00:23:46.501Z,7.85
2023-03-14T00:26:15.650Z,6.95
2023-03-14T00:28:43.477Z,7.20
2023-03-14T00:31:11.841Z,7.22
2023-03-14T00:33:39.229Z,7.30
2023-03-14T00:36:10.111Z,6.47
2023-03-14T00:38:38.780Z,6.50
2023-03-14T00:41:07.551Z,6.38
2023-03-14T00:43:35.049Z,6.28
2023-03-14T00:46:02.798Z,5.97
2023-03-14T00:48:30.233Z,6.03
2023-03-14T00:50:57.734Z,6.78
2023-03-14T00:53:25.456Z,5.80
2023-03-14T00:55:52.966Z,6.00
2023-03-14T00:58:20.627Z,5.95
2023-03-14T01:00:48.132Z,6.38
2023-03-14T01:03:16.556Z,6.05
2023-03-14T01:05:44.068Z,5.25
2023-03-14T01:08:12.914Z,6.18
2023-03-14T01:10:41.421Z,5.93
2023-03-14T01:13:09.559Z,5.82
2023-03-14T01:15:37.571Z,5.53
2023-03-14T01:18:05.200Z,5.72
2023-03-14T01:20:32.686Z,5.65
2023-03-14T01:23:00.050Z,5.68
2023-03-14T01:25:27.774Z,5.53
2023-03-14T01:27:55.601Z,5.30
2023-03-14T01:30:23.364Z,5.53
2023-03-14T01:32:50.801Z,5.47
2023-03-14T01:35:18.363Z,5.72
2023-03-14T01:37:46.197Z,5.53
2023-03-14T01:40:19.166Z,5.72
2023-03-14T01:42:56.678Z,5.70
2023-03-14T01:45:43.268Z,5.30
2023-03-14T01:48:10.781Z,5.68
2023-03-14T01:50:38.420Z,5.50
2023-03-14T01:53:06.005Z,5.68
2023-03-14T01:55:33.470Z,5.63
2023-03-14T01:58:05.149Z,5.47
2023-03-14T02:00:32.857Z,5.10
2023-03-14T02:03:06.888Z,4.82
2023-03-14T02:05:37.429Z,4.82
2023-03-14T02:08:16.793Z,5.03
2023-03-14T02:10:49.869Z,4.85
2023-03-14T02:13:23.178Z,5.07
2023-03-14T02:16:14.101Z,5.28
2023-03-14T02:18:55.742Z,4.78
2023-03-14T02:21:54.040Z,4.35
2023-03-14T02:24:24.842Z,4.95
2023-03-14T02:27:17.529Z,4.70
2023-03-14T02:29:52.158Z,5.05
2023-03-14T02:32:20.213Z,4.93
2023-03-14T02:34:49.936Z,5.35
2023-03-14T02:37:18.882Z,5.30
2023-03-14T02:39:46.965Z,5.25
2023-03-14T02:42:16.111Z,4.95
2023-03-14T02:45:01.604Z,5.35
2023-03-14T02:47:32.340Z,4.90
2023-03-14T02:50:03.547Z,4.85
2023-03-14T02:52:31.228Z,4.90
2023-03-14T02:54:58.645Z,4.93
2023-03-14T02:57:26.950Z,4.78
2023-03-14T02:59:54.384Z,5.05
2023-03-14T03:02:21.985Z,4.70
2023-03-14T03:04:49.385Z,4.63
2023-03-14T03:07:18.821Z,4.63
2023-03-14T03:09:46.648Z,4.70
2023-03-14T03:12:14.513Z,5.03
2023-03-14T03:14:42.206Z,5.50
2023-03-14T03:17:10.129Z,5.45
2023-03-14T03:19:39.255Z,5.43
2023-03-14T03:22:06.733Z,5.75
2023-03-14T03:24:34.135Z,5.22
2023-03-14T03:27:03.299Z,5.72
2023-03-14T03:29:31.764Z,5.55
2023-03-14T03:31:59.147Z,5.50
2023-03-14T03:34:26.905Z,5.53
2023-03-14T03:36:58.016Z,5.13
2023-03-14T03:39:27.171Z,5.55
2023-03-14T03:41:54.727Z,5.22
2023-03-14T03:44:22.268Z,4.45
2023-03-14T03:46:49.840Z,4.68
2023-03-14T03:49:19.080Z,4.63
2023-03-14T03:51:46.689Z,5.80
2023-03-14T03:54:14.504Z,4.72
2023-03-14T03:56:41.977Z,4.80
2023-03-14T03:59:09.370Z,4.82
2023-03-14T04:01:36.900Z,4.70
2023-03-14T04:04:04.392Z,5.10
2023-03-14T04:06:32.233Z,4.45
2023-03-14T04:09:01.464Z,4.65
2023-03-14T04:11:39.534Z,4.55
2023-03-14T04:14:22.084Z,5.28
2023-03-14T04:16:56.649Z,5.05
2023-03-14T04:19:24.296Z,5.25
2023-03-14T04:21:54.578Z,5.35
2023-03-14T04:24:24.066Z,5.05
2023-03-14T04:26:51.867Z,4.93
2023-03-14T04:29:19.421Z,5.57
2023-03-14T04:31:47.781Z,9.13
2023-03-14T04:34:15.354Z,16.55
2023-03-14T04:36:51.206Z,10.77
2023-03-14T04:39:24.057Z,24.35
2023-03-14T04:41:58.119Z,9.75
2023-03-14T04:44:26.209Z,10.63
2023-03-14T04:46:55.078Z,8.15
2023-03-14T04:49:22.603Z,39.28
2023-03-14T04:51:54.293Z,11.82
2023-03-14T04:54:24.395Z,6.70
2023-03-14T04:56:56.233Z,8.10
2023-03-14T04:59:24.104Z,7.68
2023-03-14T05:01:54.466Z,5.65
2023-03-14T05:04:41.289Z,5.95
2023-03-14T05:07:20.802Z,7.35
2023-03-14T05:10:01.751Z,6.72
2023-03-14T05:12:44.875Z,8.07
2023-03-14T05:15:36.263Z,10.32
2023-03-14T05:18:22.184Z,11.73
2023-03-14T05:21:19.059Z,12.48
2023-03-14T05:24:15.734Z,11.45
2023-03-14T05:27:03.581Z,9.88
2023-03-14T05:29:51.299Z,11.68
2023-03-14T05:32:37.411Z,9.90
2023-03-14T05:35:19.787Z,8.38
2023-03-14T05:38:07.279Z,7.18
2023-03-14T05:41:07.355Z,6.88
2023-03-14T05:44:13.497Z,7.45
2023-03-14T05:47:01.447Z,6.90
2023-03-14T05:49:52.026Z,5.70
2023-03-14T05:52:34.360Z,5.82
2023-03-14T05:55:24.889Z,5.57
2023-03-14T05:58:15.160Z,5.28
2023-03-14T06:01:06.703Z,6.75
2023-03-14T06:03:45.698Z,5.85
2023-03-14T06:06:13.470Z,7.78
2023-03-14T06:08:40.915Z,15.55
2023-03-14T06:11:11.029Z,17.77
2023-03-14T06:13:38.621Z,13.20
2023-03-14T06:16:06.245Z,11.13
2023-03-14T06:18:33.712Z,10.68
2023-03-14T06:21:01.691Z,9.95
2023-03-14T06:23:31.551Z,10.32
2023-03-14T06:26:00.608Z,8.40
2023-03-14T06:28:28.023Z,8.05
2023-03-14T06:31:00.977Z,6.05
2023-03-14T06:33:33.445Z,4.57
2023-03-14T06:36:01.749Z,4.32
2023-03-14T06:38:29.727Z,4.60
2023-03-14T06:41:04.612Z,4.10
2023-03-14T06:43:37.457Z,4.28
2023-03-14T06:46:06.820Z,4.00
2023-03-14T06:48:36.134Z,4.00
2023-03-14T06:51:03.823Z,4.57
2023-03-14T06:53:31.632Z,4.00
2023-03-14T06:56:01.340Z,4.90
2023-03-14T06:58:30.958Z,4.82
2023-03-14T07:00:59.931Z,5.72
2023-03-14T07:06:01.182Z,7.00
2023-03-14T07:08:28.860Z,7.35
2023-03-14T07:10:58.279Z,6.45
2023-03-14T07:13:26.120Z,7.60
2023-03-14T07:15:59.459Z,7.63
2023-03-14T07:18:27.055Z,5.55
2023-03-14T07:20:54.562Z,4.97
2023-03-14T07:23:22.127Z,5.53
2023-03-14T07:25:54.726Z,4.57
2023-03-14T07:28:24.646Z,4.13
2023-03-14T07:30:59.034Z,4.00
2023-03-14T07:33:31.652Z,4.97
2023-03-14T07:35:59.159Z,5.30
2023-03-14T07:38:26.757Z,4.38
2023-03-14T07:41:17.111Z,3.90
2023-03-14T07:44:04.567Z,4.20
2023-03-14T07:46:32.097Z,4.65
2023-03-14T07:48:59.554Z,4.60
2023-03-14T07:51:27.004Z,4.28
2023-03-14T07:53:54.378Z,5.03
2023-03-14T07:56:22.014Z,4.88
2023-03-14T07:58:49.437Z,4.85
2023-03-14T08:01:16.934Z,4.88
2023-03-14T08:03:44.473Z,4.75
2023-03-14T08:06:12.022Z,4.38
2023-03-14T08:08:39.561Z,3.70
2023-03-14T08:11:09.758Z,3.90
2023-03-14T08:13:38.012Z,4.07
2023-03-14T08:16:06.174Z,4.90
2023-03-14T08:18:34.085Z,4.28
2023-03-14T08:21:01.486Z,4.28
2023-03-14T08:23:29.054Z,4.10
2023-03-14T08:25:56.424Z,3.90
2023-03-14T08:28:24.240Z,3.90
2023-03-14T08:30:51.726Z,3.45
2023-03-14T08:33:19.150Z,3.88
2023-03-14T08:35:46.580Z,3.88
2023-03-14T08:38:14.044Z,4.20
2023-03-14T08:40:41.483Z,4.00
2023-03-14T08:43:08.872Z,4.20
2023-03-14T08:45:36.294Z,3.55
2023-03-14T08:48:04.161Z,3.95
2023-03-14T08:50:31.545Z,4.72
2023-03-14T08:53:00.979Z,3.75
2023-03-14T08:55:28.708Z,3.38
2023-03-14T08:57:56.133Z,4.03
2023-03-14T09:00:23.965Z,4.07
2023-03-14T09:02:52.046Z,3.85
2023-03-14T09:05:19.528Z,3.92
2023-03-14T09:07:47.529Z,3.65
2023-03-14T09:10:15.030Z,4.03
2023-03-14T09:12:42.406Z,4.03
2023-03-14T09:15:10.448Z,4.10
2023-03-14T09:17:38.042Z,4.07
2023-03-14T09:20:10.021Z,4.28
2023-03-14T09:22:37.554Z,4.03
2023-03-14T09:25:05.614Z,4.20
2023-03-14T09:27:33.092Z,4.30
2023-03-14T09:30:00.542Z,4.20
2023-03-14T09:32:28.110Z,4.25
2023-03-14T09:34:55.542Z,4.38
2023-03-14T09:37:23.012Z,4.88
2023-03-14T09:39:50.420Z,4.70
2023-03-14T09:42:23.474Z,4.65
2023-03-14T09:45:06.762Z,3.95
2023-03-14T09:47:36.709Z,3.90
2023-03-14T09:50:07.854Z,4.55
2023-03-14T09:52:38.686Z,4.47
2023-03-14T09:55:24.495Z,7.28
2023-03-14T09:57:54.485Z,4.57
2023-03-14T10:00:26.819Z,4.97
2023-03-14T10:02:54.288Z,3.63
2023-03-14T10:05:23.297Z,3.45
2023-03-14T10:07:51.174Z,3.50
2023-03-14T10:10:22.477Z,4.10
2023-03-14T10:12:56.668Z,3.95
2023-03-14T10:15:35.185Z,4.85
2023-03-14T10:18:03.531Z,4.75
2023-03-14T10:20:57.094Z,4.32
2023-03-14T10:23:26.672Z,4.20
2023-03-14T10:26:01.770Z,3.20
2023-03-14T10:28:34.691Z,4.10
2023-03-14T10:31:02.468Z,3.58
2023-03-14T10:33:31.341Z,6.43
2023-03-14T10:36:07.036Z,3.40
2023-03-14T10:38:38.424Z,4.18
2023-03-14T10:41:17.544Z,3.35
2023-03-14T10:43:45.043Z,4.75
2023-03-14T10:46:18.867Z,3.60
2023-03-14T10:49:07.485Z,4.47
2023-03-14T10:51:34.957Z,3.13
2023-03-14T10:54:02.417Z,3.47
2023-03-14T10:56:35.704Z,3.67
2023-03-14T10:59:04.572Z,3.65
2023-03-14T11:01:33.261Z,4.47
2023-03-14T11:04:05.849Z,3.40
2023-03-14T11:06:50.219Z,3.65
2023-03-14T11:09:23.597Z,4.38
2023-03-14T11:11:51.123Z,5.20
2023-03-14T11:14:33.621Z,3.35
2023-03-14T11:17:09.743Z,4.65
2023-03-14T11:19:46.352Z,6.82
2023-03-14T11:22:34.300Z,4.57
2023-03-14T11:25:01.891Z,2.70
2023-03-14T11:27:38.494Z,3.38
2023-03-14T11:30:15.100Z,3.40
2023-03-14T11:32:42.654Z,2.88
2023-03-14T11:35:17.269Z,2.70
2023-03-14T11:37:49.364Z,2.80
2023-03-14T11:40:20.601Z,2.60
2023-03-14T11:42:51.714Z,2.53
2023-03-14T11:45:21.483Z,2.20
2023-03-14T11:47:55.070Z,9.20
2023-03-14T11:50:22.562Z,5.70
2023-03-14T11:52:52.376Z,2.40
2023-03-14T11:55:27.172Z,2.58
2023-03-14T11:57:57.320Z,2.72
2023-03-14T12:00:26.124Z,2.67
2023-03-14T12:02:59.594Z,2.40
2023-03-14T12:05:27.140Z,2.28
2023-03-14T12:08:10.007Z,2.00
2023-03-14T12:10:41.857Z,7.22
2023-03-14T12:13:11.785Z,6.22
2023-03-14T12:15:44.726Z,4.60
2023-03-14T12:18:23.467Z,4.53
2023-03-14T12:20:59.398Z,2.50
2023-03-14T12:23:27.896Z,2.83
2023-03-14T12:26:13.677Z,4.20
2023-03-14T12:28:44.979Z,2.90
2023-03-14T12:31:30.904Z,1.92
2023-03-14T12:34:05.838Z,2.78
2023-03-14T12:36:54.704Z,2.72
2023-03-14T12:39:23.167Z,5.03
2023-03-14T12:41:54.129Z,2.40
2023-03-14T12:44:30.461Z,2.40
2023-03-14T12:47:01.799Z,3.30
2023-03-14T12:49:33.810Z,2.53
2023-03-14T12:52:02.331Z,2.35
2023-03-14T12:54:45.088Z,2.17
2023-03-14T12:57:27.966Z,3.47
2023-03-14T13:00:01.979Z,2.80
2023-03-14T13:02:49.442Z,3.00
2023-03-14T13:05:19.850Z,2.45
2023-03-14T13:07:50.305Z,2.13
2023-03-14T13:10:22.552Z,2.30
2023-03-14T13:12:52.444Z,2.58
2023-03-14T13:15:25.273Z,2.30
2023-03-14T13:17:53.745Z,3.00
2023-03-14T13:20:44.433Z,2.65
2023-03-14T13:23:41.548Z,2.40
2023-03-14T13:26:15.279Z,2.97
2023-03-14T13:28:43.303Z,3.28
2023-03-14T13:31:23.560Z,2.67
2023-03-14T13:34:01.167Z,1.90
2023-03-14T13:36:28.677Z,1.80
2023-03-14T13:39:00.150Z,2.22
2023-03-14T13:41:27.882Z,1.90
2023-03-14T13:44:00.116Z,2.00
2023-03-14T13:46:27.615Z,1.80
2023-03-14T13:48:59.293Z,2.38
2023-03-14T13:51:30.438Z,3.08
2023-03-14T13:53:57.986Z,4.00
2023-03-14T13:56:28.374Z,2.97
2023-03-14T13:58:56.254Z,3.00
2023-03-14T14:01:34.709Z,3.72
2023-03-14T14:04:16.793Z,3.08
2023-03-14T14:06:52.775Z,3.70
2023-03-14T14:09:25.945Z,6.38
2023-03-14T14:12:11.220Z,2.97
2023-03-14T14:14:42.368Z,4.13
2023-03-14T14:17:20.591Z,6.03
2023-03-14T14:19:48.623Z,11.55
2023-03-14T14:22:16.402Z,4.30
2023-03-14T14:24:44.020Z,2.60
2023-03-14T14:27:16.047Z,2.40
2023-03-14T14:29:43.729Z,2.13
2023-03-14T14:32:11.184Z,1.98
2023-03-14T14:34:52.047Z,2.40
2023-03-14T14:37:22.339Z,2.95
2023-03-14T14:39:50.490Z,3.60
2023-03-14T14:42:18.629Z,3.10
2023-03-14T14:44:46.739Z,3.95
2023-03-14T14:47:15.094Z,3.40
2023-03-14T14:49:42.812Z,5.25
2023-03-14T14:52:16.319Z,5.15
2023-03-14T14:54:58.197Z,4.93
2023-03-14T14:57:31.390Z,3.75
2023-03-14T15:00:05.074Z,3.50
2023-03-14T15:02:45.145Z,5.35
2023-03-14T15:05:16.613Z,5.55
2023-03-14T15:07:44.097Z,5.00
2023-03-14T15:10:19.128Z,3.30
2023-03-14T15:15:16.299Z,3.30
2023-03-14T15:17:44.182Z,2.58
2023-03-14T15:20:14.296Z,2.90
2023-03-14T15:22:41.982Z,3.53
2023-03-14T15:25:18.750Z,5.45
2023-03-14T15:27:50.034Z,5.68
2023-03-14T15:30:17.656Z,5.82
2023-03-14T15:32:45.749Z,4.38
2023-03-14T15:35:17.660Z,3.92
2023-03-14T15:37:45.829Z,4.03
2023-03-14T15:40:15.124Z,3.85
2023-03-14T15:42:42.984Z,4.97
2023-03-14T15:45:10.738Z,7.03
2023-03-14T15:47:38.277Z,12.68
2023-03-14T15:50:06.533Z,13.43
2023-03-14T15:52:34.046Z,14.13
2023-03-14T15:55:01.450Z,15.30
2023-03-14T15:57:28.919Z,10.38
2023-03-14T15:59:57.084Z,6.43
2023-03-14T16:02:24.483Z,4.85
2023-03-14T16:04:51.897Z,4.70
2023-03-14T16:07:19.551Z,5.38
2023-03-14T16:09:46.945Z,5.53
2023-03-14T16:12:14.396Z,6.15
2023-03-14T16:14:43.784Z,6.20
2023-03-14T16:17:14.202Z,5.60
2023-03-14T16:19:41.636Z,6.10
2023-03-14T16:22:09.095Z,11.32
2023-03-14T16:24:36.587Z,6.88
2023-03-14T16:27:04.023Z,14.85
2023-03-14T16:29:32.051Z,7.00
2023-03-14T16:31:59.578Z,5.35
2023-03-14T16:34:27.117Z,7.20
2023-03-14T16:36:55.629Z,7.75
2023-03-14T16:39:23.043Z,6.97
2023-03-14T16:41:50.425Z,5.82
2023-03-14T16:44:17.848Z,3.50
2023-03-14T16:46:45.401Z,3.30
2023-03-14T16:49:12.904Z,3.22
2023-03-14T16:51:41.007Z,3.42
2023-03-14T16:54:08.643Z,8.55
2023-03-14T16:56:36.280Z,16.33
2023-03-14T16:59:03.725Z,7.43
2023-03-14T17:01:31.203Z,4.95
2023-03-14T17:03:58.805Z,4.65
2023-03-14T17:06:27.739Z,4.22
2023-03-14T17:08:55.876Z,3.80
2023-03-14T17:11:23.359Z,4.05
2023-03-14T17:13:50.768Z,4.10
2023-03-14T17:16:19.491Z,3.70
2023-03-14T17:18:47.173Z,5.38
2023-03-14T17:21:14.792Z,12.98
2023-03-14T17:23:42.224Z,10.57
2023-03-14T17:26:10.301Z,4.93
2023-03-14T17:28:37.672Z,4.45
2023-03-14T17:31:13.949Z,6.10
2023-03-14T17:33:41.456Z,5.25
2023-03-14T17:36:09.284Z,6.45
2023-03-14T17:38:37.117Z,6.97
2023-03-14T17:41:05.215Z,9.13
2023-03-14T17:43:33.733Z,5.65
2023-03-14T17:46:02.496Z,8.27
2023-03-14T17:48:29.956Z,10.50
2023-03-14T17:51:00.680Z,6.60
2023-03-14T17:53:29.689Z,6.18
2023-03-14T17:55:57.274Z,6.32
2023-03-14T17:58:24.913Z,6.25
2023-03-14T18:00:52.298Z,6.47
2023-03-14T18:03:20.007Z,5.75
2023-03-14T18:05:47.403Z,4.30
2023-03-14T18:08:15.616Z,4.35
2023-03-14T18:10:43.156Z,5.80
2023-03-14T18:13:10.886Z,4.88
2023-03-14T18:15:39.044Z,5.75
2023-03-14T18:18:06.689Z,5.18
2023-03-14T18:20:34.678Z,7.10
2023-03-14T18:23:02.365Z,3.97
2023-03-14T18:25:29.961Z,3.83
2023-03-14T18:27:57.398Z,3.00
2023-03-14T18:30:26.077Z,3.65
2023-03-14T18:32:53.641Z,4.10
2023-03-14T18:35:21.073Z,3.72
2023-03-14T18:37:48.481Z,4.57
2023-03-14T18:40:17.526Z,3.97
2023-03-14T18:42:45.116Z,4.50
2023-03-14T18:45:12.847Z,4.97
2023-03-14T18:47:40.394Z,3.10
2023-03-14T18:50:10.680Z,3.67
2023-03-14T18:52:38.070Z,4.53
2023-03-14T18:55:05.977Z,4.03
2023-03-14T18:57:33.405Z,2.95
2023-03-14T19:00:00.874Z,2.92
2023-03-14T19:02:28.564Z,2.97
2023-03-14T19:04:56.044Z,2.65
2023-03-14T19:07:24.515Z,2.80
2023-03-14T19:09:51.945Z,3.25
2023-03-14T19:12:19.477Z,3.20
2023-03-14T19:14:47.107Z,3.75
2023-03-14T19:17:14.587Z,3.00
2023-03-14T19:19:41.994Z,3.00
2023-03-14T19:22:09.524Z,2.38
2023-03-14T19:24:36.994Z,2.67
2023-03-14T19:27:04.509Z,3.30
2023-03-14T19:29:32.349Z,5.60
2023-03-14T19:31:59.879Z,3.55
2023-03-14T19:34:27.332Z,5.50
2023-03-14T19:36:54.800Z,3.03
2023-03-14T19:39:22.260Z,4.03
2023-03-14T19:41:57.238Z,2.95
2023-03-14T19:44:25.568Z,3.20
2023-03-14T19:46:53.292Z,3.60
2023-03-14T19:49:21.862Z,4.43
2023-03-14T19:51:50.849Z,3.45
2023-03-14T19:54:18.403Z,4.53
2023-03-14T19:56:46.402Z,3.67
2023-03-14T19:59:13.879Z,3.15
2023-03-14T20:01:41.905Z,2.95
2023-03-14T20:04:09.561Z,3.00
2023-03-14T20:06:37.008Z,3.30
2023-03-14T20:09:06.010Z,3.20
2023-03-14T20:11:35.461Z,2.97
2023-03-14T20:14:02.826Z,3.40
2023-03-14T20:16:34.155Z,2.70
2023-03-14T20:19:01.771Z,2.75
2023-03-14T20:21:29.160Z,3.95
2023-03-14T20:23:56.571Z,3.17
2023-03-14T20:26:23.959Z,2.60
2023-03-14T20:28:51.389Z,3.10
2023-03-14T20:31:18.879Z,2.75
2023-03-14T20:33:46.362Z,2.97
2023-03-14T20:36:13.931Z,2.85
2023-03-14T20:38:41.375Z,3.30
2023-03-14T20:41:10.658Z,3.70
2023-03-14T20:43:38.198Z,3.45
2023-03-14T20:46:05.965Z,4.03
2023-03-14T20:48:33.793Z,8.40
2023-03-14T20:51:01.862Z,5.40
2023-03-14T20:53:29.501Z,4.07
2023-03-14T20:55:57.714Z,3.53
2023-03-14T20:58:25.413Z,3.40
2023-03-14T21:00:53.460Z,2.65
2023-03-14T21:03:23.123Z,2.58
2023-03-14T21:05:51.183Z,2.55
2023-03-14T21:08:20.650Z,3.00
2023-03-14T21:10:48.853Z,2.38
2023-03-14T21:13:16.368Z,2.13
2023-03-14T21:15:43.826Z,2.17
2023-03-14T21:18:11.756Z,2.25
2023-03-14T21:20:40.506Z,2.42
2023-03-14T21:23:08.089Z,2.30
2023-03-14T21:25:36.352Z,2.55
2023-03-14T21:28:04.306Z,2.28
2023-03-14T21:30:32.627Z,2.38
2023-03-14T21:33:00.499Z,2.28
2023-03-14T21:35:28.113Z,2.70
2023-03-14T21:37:55.561Z,3.00
2023-03-14T21:40:24.430Z,2.50
2023-03-14T21:42:54.282Z,2.83
2023-03-14T21:45:28.457Z,2.70
2023-03-14T21:47:56.608Z,2.63
2023-03-14T21:50:24.662Z,2.83
2023-03-14T21:52:56.926Z,2.35
2023-03-14T21:55:25.658Z,2.45
2023-03-14T21:57:54.168Z,2.40
2023-03-14T22:00:22.072Z,2.70
2023-03-14T22:03:08.611Z,2.40
2023-03-14T22:05:39.123Z,2.60
2023-03-14T22:08:06.650Z,2.42
2023-03-14T22:10:34.119Z,2.40
2023-03-14T22:13:01.532Z,2.53
2023-03-14T22:15:28.984Z,2.70
2023-03-14T22:17:56.439Z,2.38
2023-03-14T22:20:23.821Z,2.50
2023-03-14T22:22:51.275Z,2.50
2023-03-14T22:25:19.779Z,2.40
2023-03-14T22:27:47.245Z,2.88
2023-03-14T22:30:14.938Z,2.70
2023-03-14T22:32:42.406Z,2.88
2023-03-14T22:35:10.714Z,2.35
2023-03-14T22:37:40.362Z,2.60
2023-03-14T22:40:09.310Z,2.30
2023-03-14T22:42:36.814Z,2.15
2023-03-14T22:45:04.323Z,2.40
2023-03-14T22:47:31.806Z,2.50
2023-03-14T22:49:59.282Z,2.15
2023-03-14T22:52:26.791Z,2.20
2023-03-14T22:54:57.264Z,2.03
2023-03-14T22:57:24.896Z,2.10
2023-03-14T22:59:52.325Z,2.15
2023-03-14T23:02:19.842Z,2.40
2023-03-14T23:04:47.355Z,1.90
2023-03-14T23:07:14.808Z,2.25
2023-03-14T23:09:42.309Z,2.30
2023-03-14T23:12:09.987Z,2.17
2023-03-14T23:14:37.363Z,2.10
2023-03-14T23:17:05.637Z,2.45
2023-03-14T23:19:33.168Z,2.90
2023-03-14T23:22:00.595Z,2.78
2023-03-14T23:24:28.060Z,2.70
2023-03-14T23:26:55.558Z,2.88
2023-03-14T23:29:22.931Z,2.90
2023-03-14T23:31:50.359Z,2.80
2023-03-14T23:34:17.753Z,2.90
2023-03-14T23:36:46.015Z,2.67
2023-03-14T23:39:13.736Z,2.45
2023-03-14T23:41:41.238Z,2.58
2023-03-14T23:44:13.267Z,2.13
2023-03-14T23:46:41.278Z,2.30
2023-03-14T23:49:08.693Z,2.17
2023-03-14T23:51:36.204Z,2.05
2023-03-14T23:54:03.604Z,2.63
2023-03-14T23:56:31.031Z,2.20
2023-03-14T23:58:58.405Z,2.50
